Time;durP1;ratioP1;P1;durP2;ratioP2;P2;SDS_P1;SDS_P2;PMS_P1;PMS_P2;Temp;Humidity;BMP_temperature;BMP_pressure;BME280_temperature;BME280_humidity;BME280_pressure;Samples;Min_cycle;Max_cycle;Signal;HPM_P1;HPM_P2
2023/12/22 00:02:25;;;;;;;13.90;2.47;;;;;;;7.36;92.68;100370.50;5035955;28;20037;-74
2023/12/22 00:04:51;;;;;;;18.10;3.75;;;;;;;7.38;92.66;100373.06;5035958;28;20350;-73
2023/12/22 00:07:16;;;;;;;17.40;2.50;;;;;;;7.39;92.85;100375.63;5035547;28;20059;-74
2023/12/22 00:09:41;;;;;;;23.05;3.10;;;;;;;7.37;93.31;100384.38;5036030;28;20120;-74
2023/12/22 00:12:07;;;;;;;10.98;2.75;;;;;;;7.37;92.68;100369.63;5035376;28;20059;-74
2023/12/22 00:14:32;;;;;;;19.25;3.42;;;;;;;7.36;90.63;100382.69;5035706;28;20087;-74
2023/12/22 00:16:57;;;;;;;18.67;2.58;;;;;;;7.39;90.51;100391.25;5034041;28;20041;-74
2023/12/22 00:19:23;;;;;;;17.30;2.80;;;;;;;7.40;90.29;100386.88;5035398;28;20199;-74
2023/12/22 00:21:48;;;;;;;12.13;3.05;;;;;;;7.45;89.47;100390.19;5035138;28;20045;-74
2023/12/22 00:24:14;;;;;;;16.25;2.53;;;;;;;7.43;90.58;100382.41;5025161;28;20333;-74
2023/12/22 00:26:39;;;;;;;13.48;2.53;;;;;;;7.45;90.22;100382.38;5016490;28;20375;-73
2023/12/22 00:29:05;;;;;;;13.93;2.45;;;;;;;7.47;91.23;100396.19;5026936;28;20038;-74
2023/12/22 00:31:30;;;;;;;22.20;3.22;;;;;;;7.55;90.54;100391.56;5034917;28;20064;-74
2023/12/22 00:33:55;;;;;;;24.95;3.85;;;;;;;7.57;90.08;100400.19;5021248;28;20216;-74
2023/12/22 00:36:24;;;;;;;12.00;2.00;;;;;;;7.54;88.63;100373.38;5016814;28;20069;-74
2023/12/22 00:38:49;;;;;;;14.65;2.58;;;;;;;7.50;86.94;100389.13;5017592;28;20034;-74
2023/12/22 00:41:15;;;;;;;9.82;2.10;;;;;;;7.52;85.25;100383.00;5016414;28;20331;-74
2023/12/22 00:43:40;;;;;;;16.33;3.25;;;;;;;7.48;85.49;100395.28;5026274;28;20320;-74
2023/12/22 00:46:05;;;;;;;19.20;2.40;;;;;;;7.47;86.29;100406.59;5035797;28;20237;-74
2023/12/22 00:48:31;;;;;;;20.70;2.63;;;;;;;7.46;85.69;100407.53;5035181;28;20135;-73
2023/12/22 00:50:56;;;;;;;13.85;2.47;;;;;;;7.47;84.70;100425.69;5034251;28;20041;-74
2023/12/22 00:53:21;;;;;;;11.60;2.10;;;;;;;7.43;86.94;100405.03;5035230;28;20045;-74
2023/12/22 00:55:47;;;;;;;18.75;3.45;;;;;;;7.40;85.60;100418.16;5036111;28;20041;-73
2023/12/22 00:58:12;;;;;;;28.08;3.25;;;;;;;7.43;86.63;100426.72;5035255;28;20044;-74
2023/12/22 01:00:38;;;;;;;20.73;2.70;;;;;;;7.43;86.27;100433.69;5036181;28;20037;-74
2023/12/22 01:03:03;;;;;;;22.08;3.13;;;;;;;7.43;85.03;100428.47;5029867;28;20368;-74
2023/12/22 01:05:29;;;;;;;15.93;1.90;;;;;;;7.51;83.37;100408.19;5035466;28;20049;-74
2023/12/22 01:07:54;;;;;;;25.88;3.25;;;;;;;7.48;83.27;100416.16;5035118;28;20033;-73
2023/12/22 01:10:19;;;;;;;15.88;2.78;;;;;;;7.45;83.31;100421.44;5033984;28;20044;-73
2023/12/22 01:12:45;;;;;;;14.35;1.88;;;;;;;7.43;82.99;100429.31;5035517;28;20071;-73
2023/12/22 01:15:10;;;;;;;19.65;3.22;;;;;;;7.45;82.42;100421.44;5035188;28;20041;-74
2023/12/22 01:17:35;;;;;;;14.02;2.58;;;;;;;7.41;82.22;100414.66;5035764;28;20104;-73
2023/12/22 01:20:01;;;;;;;15.52;2.45;;;;;;;7.38;81.92;100428.63;5022262;28;20057;-73
2023/12/22 01:22:26;;;;;;;20.05;2.55;;;;;;;7.38;82.31;100423.41;5024296;28;20104;-73
2023/12/22 01:24:51;;;;;;;15.77;2.42;;;;;;;7.38;83.21;100432.97;5034473;28;20041;-73
2023/12/22 01:27:17;;;;;;;16.38;2.85;;;;;;;7.43;83.17;100431.91;5035717;28;20032;-73
2023/12/22 01:29:42;;;;;;;29.25;2.92;;;;;;;7.41;85.76;100435.50;5034977;28;20045;-74
2023/12/22 01:32:07;;;;;;;15.75;2.53;;;;;;;7.45;84.75;100447.50;5027055;28;20041;-73
2023/12/22 01:34:33;;;;;;;10.60;1.80;;;;;;;7.47;81.58;100435.28;5015769;28;20045;-74
2023/12/22 01:36:58;;;;;;;13.80;2.35;;;;;;;7.44;80.47;100451.00;5015032;28;20044;-74
2023/12/22 01:39:23;;;;;;;15.73;2.17;;;;;;;7.46;80.30;100459.66;5018301;28;20061;-74
2023/12/22 01:41:49;;;;;;;14.95;2.60;;;;;;;7.48;79.73;100458.66;5035247;28;20033;-74
2023/12/22 01:44:14;;;;;;;20.23;2.45;;;;;;;7.40;81.35;100452.84;5034564;28;20060;-74
2023/12/22 01:46:40;;;;;;;14.85;2.45;;;;;;;7.35;82.08;100444.38;5034631;28;20100;-74
2023/12/22 01:49:07;;;;;;;18.08;3.25;;;;;;;7.39;82.73;100437.31;5015545;28;20037;-74
2023/12/22 01:51:35;;;;;;;23.38;3.47;;;;;;;7.39;83.08;100443.34;5015061;28;20040;-74
2023/12/22 01:54:01;;;;;;;25.45;3.10;;;;;;;7.38;84.08;100433.81;5014886;28;20053;-74
2023/12/22 01:56:27;;;;;;;22.52;2.78;;;;;;;7.40;86.22;100449.41;5030537;28;20240;-74
2023/12/22 01:58:57;;;;;;;19.80;3.25;;;;;;;7.37;87.26;100439.06;5034518;28;20339;-74
2023/12/22 02:01:23;;;;;;;20.02;3.28;;;;;;;7.37;88.16;100445.16;5021345;28;20037;-74
2023/12/22 02:03:53;;;;;;;15.65;2.70;;;;;;;7.46;87.83;100439.63;5013269;28;20100;-74
2023/12/22 02:06:19;;;;;;;22.52;3.40;;;;;;;7.49;88.61;100464.72;5015460;28;20038;-74
2023/12/22 02:08:47;;;;;;;17.13;2.72;;;;;;;7.50;89.25;100436.03;5014617;28;20092;-74
2023/12/22 02:11:12;;;;;;;20.00;3.05;;;;;;;7.54;90.43;100435.91;5025857;28;20044;-74
2023/12/22 02:13:38;;;;;;;12.27;2.25;;;;;;;7.59;90.10;100481.75;5034476;28;20052;-74
2023/12/22 02:16:12;;;;;;;13.23;2.83;;;;;;;7.61;90.13;100450.44;5034315;28;20032;-74
2023/12/22 02:18:40;;;;;;;10.05;2.15;;;;;;;7.57;89.56;100462.72;5034561;28;20037;-74
2023/12/22 02:21:06;;;;;;;12.67;2.83;;;;;;;7.59;89.24;100450.50;5034394;28;20049;-74
2023/12/22 02:23:31;;;;;;;10.70;2.25;;;;;;;7.60;87.94;100475.63;5034654;28;20071;-74
2023/12/22 02:26:06;;;;;;;15.93;2.40;;;;;;;7.63;87.54;100466.88;5034466;28;20033;-73
2023/12/22 02:28:35;;;;;;;15.00;3.53;;;;;;;7.62;88.06;100437.38;5034074;28;20447;-74
2023/12/22 02:31:09;;;;;;;22.30;3.65;;;;;;;7.62;88.67;100446.91;5033279;28;20045;-73
2023/12/22 02:33:37;;;;;;;23.45;2.25;;;;;;;7.65;89.33;100449.44;5017802;28;20397;-73
2023/12/22 02:36:06;;;;;;;16.00;2.72;;;;;;;7.66;89.01;100446.78;5014493;28;20034;-74
2023/12/22 02:38:33;;;;;;;14.00;2.10;;;;;;;7.66;90.11;100467.63;5013965;28;20065;-74
2023/12/22 02:40:58;;;;;;;11.27;2.05;;;;;;;7.66;90.43;100456.34;5015117;28;20095;-74
2023/12/22 02:43:24;;;;;;;18.38;2.88;;;;;;;7.63;91.27;100464.28;5013879;28;20649;-74
2023/12/22 02:45:52;;;;;;;20.95;2.65;;;;;;;7.60;91.09;100440.91;5012574;28;20041;-74
2023/12/22 02:48:18;;;;;;;11.45;2.58;;;;;;;7.56;91.24;100474.03;5014797;28;20032;-74
2023/12/22 02:50:43;;;;;;;13.00;2.45;;;;;;;7.62;89.20;100437.38;5025002;28;20084;-74
2023/12/22 02:53:08;;;;;;;12.68;2.85;;;;;;;7.63;88.61;100439.03;5033948;28;20034;-74
2023/12/22 02:55:34;;;;;;;11.57;1.77;;;;;;;7.62;88.31;100446.91;5035705;28;20335;-74
2023/12/22 02:57:59;;;;;;;15.65;2.78;;;;;;;7.63;87.84;100453.84;5038170;28;20064;-73
2023/12/22 03:00:24;;;;;;;13.18;2.05;;;;;;;7.62;88.53;100452.13;5038275;28;20033;-74
2023/12/22 03:02:50;;;;;;;14.05;1.98;;;;;;;7.57;89.13;100449.69;5036811;28;20352;-74
2023/12/22 03:05:15;;;;;;;10.48;2.10;;;;;;;7.63;87.90;100459.06;5038077;28;20386;-73
2023/12/22 03:07:40;;;;;;;20.38;2.95;;;;;;;7.62;88.68;100447.78;5037200;28;20045;-73
2023/12/22 03:10:06;;;;;;;19.23;2.97;;;;;;;7.61;89.57;100453.06;5037837;28;20240;-74
2023/12/22 03:12:31;;;;;;;11.68;2.22;;;;;;;7.62;88.97;100446.91;5037465;28;20060;-74
2023/12/22 03:14:57;;;;;;;18.70;2.50;;;;;;;7.59;88.72;100458.31;5037636;28;20051;-74
2023/12/22 03:17:22;;;;;;;15.13;2.35;;;;;;;7.68;86.70;100441.50;5037488;28;20048;-74
2023/12/22 03:19:47;;;;;;;11.52;2.08;;;;;;;7.69;86.97;100456.22;5037582;28;20260;-74
2023/12/22 03:22:13;;;;;;;17.77;2.80;;;;;;;7.69;85.23;100485.78;5036876;28;20033;-73
2023/12/22 03:24:38;;;;;;;8.95;2.53;;;;;;;7.70;84.74;100460.53;5037702;28;20030;-74
2023/12/22 03:27:04;;;;;;;16.23;2.25;;;;;;;7.66;82.96;100457.19;5036847;28;20057;-73
2023/12/22 03:29:29;;;;;;;14.73;2.90;;;;;;;7.65;81.50;100439.84;5037394;28;20036;-74
2023/12/22 03:31:54;;;;;;;11.40;1.88;;;;;;;7.62;81.23;100434.75;5028328;28;20036;-74
2023/12/22 03:34:20;;;;;;;17.15;3.03;;;;;;;7.61;80.75;100456.50;5037658;28;20021;-74
2023/12/22 03:36:48;;;;;;;16.25;2.78;;;;;;;7.59;81.63;100441.84;5034853;28;20064;-74
2023/12/22 03:39:14;;;;;;;13.95;2.50;;;;;;;7.60;80.96;100452.19;5030531;28;20041;-74
2023/12/22 03:41:39;;;;;;;15.73;1.92;;;;;;;7.61;82.77;100447.84;5037410;28;20056;-74
2023/12/22 03:44:05;;;;;;;28.58;2.72;;;;;;;7.64;83.02;100439.88;5036680;28;20086;-74
2023/12/22 03:46:30;;;;;;;12.25;2.08;;;;;;;7.68;83.25;100442.34;5037285;28;20093;-74
2023/12/22 03:48:55;;;;;;;14.52;1.98;;;;;;;7.69;84.14;100436.25;5036718;28;20025;-75
2023/12/22 03:51:21;;;;;;;17.48;2.30;;;;;;;7.69;85.76;100436.25;5037337;28;20250;-74
2023/12/22 03:53:46;;;;;;;14.38;2.88;;;;;;;7.75;85.51;100435.19;5036392;28;20290;-75
2023/12/22 03:56:11;;;;;;;15.57;2.38;;;;;;;7.74;86.96;100436.06;5037199;28;20205;-75
2023/12/22 03:58:37;;;;;;;14.27;2.20;;;;;;;7.71;87.71;100448.34;5027366;28;20303;-75
2023/12/22 04:01:04;;;;;;;17.58;2.40;;;;;;;7.71;88.23;100443.97;5016977;28;20431;-74
2023/12/22 04:03:29;;;;;;;12.82;1.60;;;;;;;7.69;88.75;100451.00;5017331;28;20104;-74
2023/12/22 04:05:54;;;;;;;8.55;1.73;;;;;;;7.72;89.00;100463.09;5016740;28;20279;-74
2023/12/22 04:08:20;;;;;;;12.40;3.33;;;;;;;7.76;89.34;100444.69;5017086;28;20093;-74
2023/12/22 04:10:46;;;;;;;11.85;2.60;;;;;;;7.78;90.19;100444.63;5016745;28;20109;-75
2023/12/22 04:13:11;;;;;;;11.15;2.00;;;;;;;7.77;91.63;100449.00;5017078;28;20026;-74
2023/12/22 04:15:37;;;;;;;9.48;1.85;;;;;;;7.77;90.53;100446.41;5016873;28;20375;-75
2023/12/22 04:18:02;;;;;;;9.63;2.25;;;;;;;7.75;92.51;100445.59;5016629;28;20149;-75
2023/12/22 04:20:29;;;;;;;17.38;2.13;;;;;;;7.75;92.10;100449.94;5035481;28;20060;-74
2023/12/22 04:22:54;;;;;;;13.07;2.38;;;;;;;7.77;91.12;100454.22;5035904;28;20041;-74
2023/12/22 04:25:19;;;;;;;11.65;2.75;;;;;;;7.77;92.35;100459.44;5035967;28;20584;-74
2023/12/22 04:27:45;;;;;;;17.38;2.70;;;;;;;7.74;93.06;100449.09;5036383;28;20343;-74
2023/12/22 04:30:10;;;;;;;10.32;1.77;;;;;;;7.74;93.01;100435.22;5035792;28;20037;-74
2023/12/22 04:32:36;;;;;;;17.90;2.38;;;;;;;7.74;95.06;100458.69;5028836;28;20049;-74
2023/12/22 04:35:01;;;;;;;16.77;2.42;;;;;;;7.77;97.38;100451.59;5016568;28;20240;-75
2023/12/22 04:37:26;;;;;;;12.32;2.80;;;;;;;7.80;97.86;100448.03;5016342;28;20450;-74
2023/12/22 04:39:52;;;;;;;14.95;2.38;;;;;;;7.81;99.77;100454.97;5023871;28;20048;-75
2023/12/22 04:42:18;;;;;;;11.32;1.63;;;;;;;7.87;100.00;100439.94;5036332;28;20064;-75
2023/12/22 04:44:43;;;;;;;19.13;3.25;;;;;;;7.91;100.00;100442.44;5034738;28;20100;-74
2023/12/22 04:47:09;;;;;;;20.55;3.28;;;;;;;7.87;100.00;100445.16;5035831;28;20065;-74
2023/12/22 04:49:34;;;;;;;13.68;2.28;;;;;;;7.90;100.00;100449.41;5035435;28;20371;-74
2023/12/22 04:51:59;;;;;;;22.30;3.00;;;;;;;7.90;100.00;100446.81;5033964;28;20071;-74
2023/12/22 04:54:25;;;;;;;24.75;3.22;;;;;;;7.94;100.00;100443.19;5034886;28;20048;-75
2023/12/22 04:56:50;;;;;;;15.70;2.53;;;;;;;7.94;100.00;100442.34;5016067;28;20034;-74
2023/12/22 04:59:15;;;;;;;19.20;2.97;;;;;;;7.94;99.82;100456.22;5016145;28;20219;-75
2023/12/22 05:01:42;;;;;;;13.05;2.72;;;;;;;7.96;99.66;100464.00;5016295;28;20048;-75
2023/12/22 05:04:07;;;;;;;11.80;1.98;;;;;;;7.95;99.88;100468.38;5015416;28;20297;-74
2023/12/22 05:06:33;;;;;;;16.58;2.58;;;;;;;7.97;99.79;100452.66;5031626;28;20277;-75
2023/12/22 05:08:58;;;;;;;17.40;2.75;;;;;;;7.97;99.63;100450.06;5035372;28;20324;-75
2023/12/22 05:11:24;;;;;;;17.30;2.97;;;;;;;8.01;99.47;100460.31;5035056;28;20359;-75
2023/12/22 05:13:49;;;;;;;18.92;3.25;;;;;;;7.98;100.00;100454.34;5035171;28;20037;-75
2023/12/22 05:16:14;;;;;;;17.23;2.47;;;;;;;8.01;99.12;100459.47;5034818;28;20060;-75
2023/12/22 05:18:40;;;;;;;18.38;2.92;;;;;;;7.99;100.00;100453.47;5034576;28;20047;-74
2023/12/22 05:21:06;;;;;;;19.55;3.47;;;;;;;7.99;100.00;100454.31;5034795;28;20072;-74
2023/12/22 05:23:32;;;;;;;32.22;4.07;;;;;;;8.01;100.00;100443.81;5035435;28;20037;-74
2023/12/22 05:25:57;;;;;;;23.70;3.75;;;;;;;8.01;100.00;100457.69;5034237;28;20048;-74
2023/12/22 05:28:23;;;;;;;17.52;3.95;;;;;;;8.01;100.00;100457.69;5035327;28;20037;-74
2023/12/22 05:30:48;;;;;;;26.55;4.55;;;;;;;8.01;100.00;100442.06;5034938;28;20037;-74
2023/12/22 05:33:13;;;;;;;28.15;3.92;;;;;;;7.99;100.00;100417.78;5035348;28;20336;-74
2023/12/22 05:35:39;;;;;;;31.92;4.13;;;;;;;8.00;100.00;100431.66;5034819;28;20060;-74
2023/12/22 05:38:04;;;;;;;26.77;4.88;;;;;;;8.01;100.00;100426.41;5023817;28;20034;-75
2023/12/22 05:40:31;;;;;;;31.25;5.00;;;;;;;8.00;100.00;100432.50;5015150;28;20047;-75
2023/12/22 05:42:57;;;;;;;37.50;5.97;;;;;;;8.01;100.00;100438.59;5015502;28;20295;-74
2023/12/22 05:45:24;;;;;;;27.40;4.72;;;;;;;8.01;100.00;100433.38;5015257;28;20026;-75
2023/12/22 05:47:49;;;;;;;24.92;4.05;;;;;;;8.02;100.00;100440.28;5014985;28;20140;-75
2023/12/22 05:50:15;;;;;;;28.35;4.68;;;;;;;8.05;100.00;100429.75;5025016;28;20209;-74
2023/12/22 05:52:40;;;;;;;36.60;5.57;;;;;;;8.05;100.00;100427.97;5033910;28;20033;-74
2023/12/22 05:55:06;;;;;;;17.23;3.88;;;;;;;8.06;100.00;100429.69;5034665;28;20068;-74
2023/12/22 05:57:31;;;;;;;35.15;4.70;;;;;;;8.08;100.00;100438.31;5034189;28;20217;-75
2023/12/22 05:59:57;;;;;;;25.20;5.13;;;;;;;8.10;100.00;100434.81;5034608;28;20037;-74
2023/12/22 06:02:22;;;;;;;28.02;4.68;;;;;;;8.14;100.00;100439.84;5034699;28;20052;-74
2023/12/22 06:04:47;;;;;;;35.95;5.10;;;;;;;8.15;100.00;100441.56;5034284;28;20057;-74
2023/12/22 06:07:13;;;;;;;39.80;5.97;;;;;;;8.15;100.00;100444.16;5034026;28;20037;-74
2023/12/22 06:09:39;;;;;;;29.25;5.53;;;;;;;8.14;100.00;100439.84;5033394;28;20025;-74
2023/12/22 06:12:05;;;;;;;43.63;5.60;;;;;;;8.16;100.00;100458.06;5031076;28;20108;-74
2023/12/22 06:14:31;;;;;;;32.72;4.95;;;;;;;8.20;100.00;100451.81;5014755;28;20375;-74
2023/12/22 06:16:58;;;;;;;26.85;5.00;;;;;;;8.22;100.00;100450.00;5025741;28;20216;-74
2023/12/22 06:19:25;;;;;;;30.55;4.85;;;;;;;8.21;100.00;100454.38;5034223;28;20044;-74
2023/12/22 06:21:50;;;;;;;36.17;5.82;;;;;;;8.20;100.00;100460.47;5034004;28;20459;-74
2023/12/22 06:24:16;;;;;;;30.35;5.30;;;;;;;8.22;100.00;100465.63;5033540;28;20048;-74
2023/12/22 06:26:42;;;;;;;35.10;4.95;;;;;;;8.22;100.00;100463.91;5034273;28;20282;-74
2023/12/22 06:29:07;;;;;;;36.50;6.00;;;;;;;8.23;100.00;100460.38;5016816;28;20326;-74
2023/12/22 06:31:32;;;;;;;42.58;6.22;;;;;;;8.23;100.00;100455.16;5014527;28;20410;-74
2023/12/22 06:34:02;;;;;;;32.25;4.88;;;;;;;8.23;100.00;100454.31;5014581;28;20303;-74
2023/12/22 06:36:27;;;;;;;29.77;4.75;;;;;;;8.25;100.00;100444.66;5014612;28;20049;-74
2023/12/22 06:38:54;;;;;;;43.33;5.60;;;;;;;8.27;100.00;100468.94;5031312;28;20049;-74
2023/12/22 06:41:32;;;;;;;32.42;5.68;;;;;;;8.27;100.00;100448.91;5033748;28;20033;-74
2023/12/22 06:44:01;;;;;;;34.75;4.95;;;;;;;8.28;100.00;100457.59;5032872;28;20042;-74
2023/12/22 06:46:27;;;;;;;29.73;4.38;;;;;;;8.27;100.00;100435.84;5033886;28;20036;-74
2023/12/22 06:48:53;;;;;;;28.30;4.38;;;;;;;8.30;100.00;100434.91;5033571;28;20021;-75
2023/12/22 06:51:23;;;;;;;24.85;4.38;;;;;;;8.29;100.00;100434.97;5034273;28;20033;-74
2023/12/22 06:53:49;;;;;;;26.15;4.53;;;;;;;8.30;100.00;100437.53;5033468;28;20068;-74
2023/12/22 06:56:19;;;;;;;28.77;4.65;;;;;;;8.29;100.00;100432.34;5034331;28;20383;-74
2023/12/22 06:58:47;;;;;;;34.42;5.53;;;;;;;8.29;100.00;100434.97;5028572;28;20332;-74
2023/12/22 07:01:17;;;;;;;20.65;4.13;;;;;;;8.27;100.00;100442.84;5030507;28;20042;-74
2023/12/22 07:03:42;;;;;;;21.95;4.47;;;;;;;8.27;100.00;100421.97;5033281;28;20291;-74
2023/12/22 07:06:07;;;;;;;28.33;4.47;;;;;;;8.30;100.00;100434.91;5038420;28;20527;-75
2023/12/22 07:08:33;;;;;;;21.73;3.80;;;;;;;8.31;100.00;100426.16;5033805;28;20033;-74
2023/12/22 07:10:58;;;;;;;33.10;6.15;;;;;;;8.31;100.00;100434.00;5032691;28;20040;-75
2023/12/22 07:13:23;;;;;;;26.25;4.68;;;;;;;8.27;100.00;100428.03;5033136;28;20281;-74
2023/12/22 07:15:49;;;;;;;28.23;4.15;;;;;;;8.29;100.00;100429.75;5032074;28;20095;-74
2023/12/22 07:18:14;;;;;;;29.75;4.40;;;;;;;8.30;100.00;100424.47;5023774;28;20041;-74
2023/12/22 07:20:40;;;;;;;25.45;4.47;;;;;;;8.29;100.00;100427.13;5027413;28;20136;-74
2023/12/22 07:23:05;;;;;;;20.17;3.55;;;;;;;8.31;100.00;100438.38;5027100;28;20037;-74
2023/12/22 07:25:36;;;;;;;20.63;3.72;;;;;;;8.33;100.00;100449.59;5026464;28;20109;-75
2023/12/22 07:28:01;;;;;;;17.50;2.90;;;;;;;8.36;100.00;100428.59;5021395;28;20083;-75
2023/12/22 07:30:26;;;;;;;30.75;3.60;;;;;;;8.35;100.00;100427.75;5026965;28;20045;-75
2023/12/22 07:32:52;;;;;;;19.40;3.47;;;;;;;8.36;100.00;100423.38;5022120;28;20038;-74
2023/12/22 07:35:17;;;;;;;18.05;3.22;;;;;;;8.34;100.00;100441.72;5038501;28;20029;-75
2023/12/22 07:37:43;;;;;;;25.25;4.25;;;;;;;8.36;100.00;100441.66;5037059;28;20059;-74
2023/12/22 07:40:09;;;;;;;24.85;4.65;;;;;;;8.33;100.00;100426.97;5021866;28;20052;-74
2023/12/22 07:42:34;;;;;;;20.55;3.83;;;;;;;8.34;100.00;100425.22;5030413;28;20052;-74
2023/12/22 07:45:00;;;;;;;24.38;3.05;;;;;;;8.35;100.00;100445.16;5036463;28;20033;-74
2023/12/22 07:47:26;;;;;;;21.42;4.13;;;;;;;8.35;100.00;100416.47;5034441;28;20057;-74
2023/12/22 07:49:51;;;;;;;23.23;3.28;;;;;;;8.36;100.00;100423.38;5028577;28;20023;-74
2023/12/22 07:52:17;;;;;;;25.70;3.47;;;;;;;8.38;100.00;100426.78;5036478;28;20138;-74
2023/12/22 07:54:42;;;;;;;16.33;2.20;;;;;;;8.38;100.00;100419.81;5032896;28;20446;-74
2023/12/22 07:57:07;;;;;;;13.52;2.90;;;;;;;8.39;100.00;100413.69;5029298;28;20352;-74
2023/12/22 07:59:33;;;;;;;17.38;2.70;;;;;;;8.39;100.00;100418.91;5033890;28;20377;-74
2023/12/22 08:01:58;;;;;;;17.55;2.88;;;;;;;8.40;100.00;100422.34;5034595;28;20041;-74
2023/12/22 08:04:24;;;;;;;6.10;1.98;;;;;;;8.41;100.00;100440.56;5029109;28;20105;-74
2023/12/22 08:06:49;;;;;;;19.02;2.65;;;;;;;8.40;100.00;100435.41;5031463;28;20061;-74
2023/12/22 08:09:15;;;;;;;19.45;2.40;;;;;;;8.41;100.00;100418.84;5030975;28;20030;-74
2023/12/22 08:11:40;;;;;;;14.40;2.95;;;;;;;8.42;100.00;100423.19;5031795;28;20034;-74
2023/12/22 08:14:06;;;;;;;22.13;2.97;;;;;;;8.45;100.00;100416.09;5030192;28;20104;-74
2023/12/22 08:16:32;;;;;;;12.75;2.50;;;;;;;8.47;100.00;100417.78;5031482;28;20037;-74
2023/12/22 08:18:58;;;;;;;15.30;2.58;;;;;;;8.46;100.00;100406.50;5035728;28;20033;-74
2023/12/22 08:21:23;;;;;;;10.55;1.85;;;;;;;8.49;100.00;100403.75;5034364;28;20374;-74
2023/12/22 08:23:48;;;;;;;10.52;2.22;;;;;;;8.49;100.00;100415.97;5036229;28;20052;-74
2023/12/22 08:26:17;;;;;;;15.15;2.20;;;;;;;8.53;100.00;100421.03;5032282;28;20037;-74
2023/12/22 08:28:42;;;;;;;9.10;1.67;;;;;;;8.55;100.00;100403.53;5030859;28;20100;-74
2023/12/22 08:31:07;;;;;;;16.02;2.35;;;;;;;8.57;100.00;100414.78;5049312;28;20328;-74
2023/12/22 08:33:33;;;;;;;8.65;1.42;;;;;;;8.59;100.00;100418.16;5035383;28;20091;-74
2023/12/22 08:35:58;;;;;;;11.90;1.92;;;;;;;8.59;100.00;100414.72;5031974;28;20045;-74
2023/12/22 08:38:23;;;;;;;12.77;1.73;;;;;;;8.57;100.00;100406.94;5030893;28;20040;-74
2023/12/22 08:40:49;;;;;;;12.38;2.13;;;;;;;8.58;100.00;100390.34;5021705;28;20037;-75
2023/12/22 08:43:15;;;;;;;16.95;2.00;;;;;;;8.61;100.00;100415.50;5028014;28;20057;-75
2023/12/22 08:45:40;;;;;;;11.10;1.70;;;;;;;8.60;100.00;100412.06;5023552;28;20163;-74
2023/12/22 08:48:07;;;;;;;12.65;1.90;;;;;;;8.62;100.00;100405.00;5025753;28;20033;-74
2023/12/22 08:50:34;;;;;;;10.75;1.90;;;;;;;8.63;100.00;100419.75;5028416;28;20060;-74
2023/12/22 08:52:59;;;;;;;8.90;1.75;;;;;;;8.63;100.00;100411.91;5023781;28;20145;-74
2023/12/22 08:55:25;;;;;;;7.85;1.70;;;;;;;8.65;100.00;100407.47;5026105;28;20052;-74
2023/12/22 08:57:50;;;;;;;11.38;1.50;;;;;;;8.65;100.00;100409.25;5031537;28;20033;-74
2023/12/22 09:00:15;;;;;;;8.27;1.45;;;;;;;8.68;100.00;100396.06;5029926;28;20056;-74
2023/12/22 09:02:41;;;;;;;14.13;2.53;;;;;;;8.70;100.00;100409.91;5027170;28;20049;-74
2023/12/22 09:05:07;;;;;;;14.40;1.67;;;;;;;8.74;100.00;100401.03;5031823;28;20110;-74
2023/12/22 09:07:32;;;;;;;11.00;1.70;;;;;;;8.75;100.00;100410.59;5040153;28;20072;-74
2023/12/22 09:09:58;;;;;;;9.40;2.25;;;;;;;8.76;100.00;100409.66;5032346;28;20060;-74
2023/12/22 09:12:23;;;;;;;9.80;1.65;;;;;;;8.77;100.00;100418.38;5030525;28;20225;-74
2023/12/22 09:14:49;;;;;;;10.68;2.00;;;;;;;8.80;100.00;100402.56;5024634;28;20324;-74
2023/12/22 09:17:16;;;;;;;9.20;1.63;;;;;;;8.82;100.00;100412.03;5032920;28;20037;-74
2023/12/22 09:19:42;;;;;;;10.98;1.52;;;;;;;8.84;100.00;100420.66;5028712;28;20374;-74
2023/12/22 09:22:08;;;;;;;10.55;1.48;;;;;;;8.88;100.00;100402.22;5027625;28;20382;-74
2023/12/22 09:24:33;;;;;;;12.07;1.40;;;;;;;8.90;100.00;100406.50;5025977;28;20061;-74
2023/12/22 09:27:02;;;;;;;14.48;2.70;;;;;;;8.93;100.00;100410.75;5024758;28;20041;-74
2023/12/22 09:29:35;;;;;;;11.00;1.65;;;;;;;8.94;100.00;100415.91;5027096;28;20100;-74
2023/12/22 09:32:01;;;;;;;11.82;1.58;;;;;;;8.94;100.00;100417.69;5023141;28;20155;-74
2023/12/22 09:34:27;;;;;;;7.57;1.25;;;;;;;8.95;100.00;100415.00;5035590;28;20108;-74
2023/12/22 09:36:53;;;;;;;8.27;1.77;;;;;;;8.95;100.00;100422.84;5038530;28;20063;-74
2023/12/22 09:39:19;;;;;;;10.32;2.47;;;;;;;8.98;100.00;100416.63;5037449;28;20040;-74
2023/12/22 09:41:48;;;;;;;11.35;1.95;;;;;;;8.99;100.00;100416.56;5038978;28;20041;-74
2023/12/22 09:44:17;;;;;;;15.95;1.80;;;;;;;9.02;100.00;100420.81;5041782;28;20334;-74
2023/12/22 09:46:43;;;;;;;6.80;1.40;;;;;;;9.05;100.00;100440.75;5042090;28;20090;-74
2023/12/22 09:49:08;;;;;;;8.90;1.17;;;;;;;9.05;100.00;100425.91;5042462;28;20033;-74
2023/12/22 09:51:35;;;;;;;7.70;1.83;;;;;;;9.06;100.00;100427.63;5028246;28;20078;-74
2023/12/22 09:54:02;;;;;;;10.65;1.90;;;;;;;9.08;100.00;100444.09;5026348;28;20037;-74
2023/12/22 09:56:29;;;;;;;6.88;1.40;;;;;;;9.09;100.00;100437.09;5040280;28;20028;-74
2023/12/22 09:58:56;;;;;;;9.82;1.50;;;;;;;9.11;100.00;100420.44;5041504;28;20395;-74
2023/12/22 10:01:22;;;;;;;8.88;2.08;;;;;;;9.11;100.00;100451.78;5043506;28;20016;-74
2023/12/22 10:03:48;;;;;;;6.68;1.52;;;;;;;9.15;100.00;100436.81;5044041;28;20359;-74
2023/12/22 10:06:14;;;;;;;12.45;2.30;;;;;;;9.16;100.00;100430.72;5045733;28;20045;-74
2023/12/22 10:08:40;;;;;;;5.90;1.70;;;;;;;9.16;100.00;100428.94;5046639;28;20048;-73
2023/12/22 10:11:06;;;;;;;8.75;1.70;;;;;;;9.15;100.00;100442.94;5044476;28;20398;-74
2023/12/22 10:13:35;;;;;;;6.78;1.65;;;;;;;9.19;100.00;100430.59;5041081;28;20117;-73
2023/12/22 10:16:01;;;;;;;13.02;1.60;;;;;;;9.22;100.00;100427.81;5043001;28;20037;-74
2023/12/22 10:18:26;;;;;;;10.43;1.60;;;;;;;9.27;100.00;100430.25;5037426;28;20033;-74
2023/12/22 10:20:52;;;;;;;9.52;1.67;;;;;;;9.30;100.00;100445.81;5041213;28;20041;-74
2023/12/22 10:23:17;;;;;;;9.55;1.42;;;;;;;9.32;100.00;100442.22;5040213;28;20037;-74
2023/12/22 10:25:43;;;;;;;12.65;1.75;;;;;;;9.34;100.00;100439.53;5040507;28;20324;-74
2023/12/22 10:28:11;;;;;;;11.82;1.73;;;;;;;9.34;100.00;100450.00;5036075;28;20033;-74
2023/12/22 10:30:38;;;;;;;10.07;1.80;;;;;;;9.34;100.00;100448.22;5032005;28;20036;-74
2023/12/22 10:33:07;;;;;;;9.25;1.95;;;;;;;9.36;100.00;100448.16;5038413;28;20031;-74
2023/12/22 10:35:32;;;;;;;9.63;1.52;;;;;;;9.33;100.00;100438.69;5042024;28;20216;-74
2023/12/22 10:37:59;;;;;;;13.00;1.70;;;;;;;9.35;100.00;100443.84;5042559;28;20029;-74
2023/12/22 10:40:25;;;;;;;4.50;1.20;;;;;;;9.36;100.00;100435.94;5039912;28;20349;-74
2023/12/22 10:42:51;;;;;;;10.30;1.40;;;;;;;9.37;100.00;100452.50;5035465;28;20457;-74
2023/12/22 10:45:18;;;;;;;10.90;1.73;;;;;;;9.38;100.00;100441.94;5033179;28;20037;-74
2023/12/22 10:47:43;;;;;;;11.85;1.45;;;;;;;9.40;100.00;100457.56;5041835;28;20326;-74
2023/12/22 10:50:12;;;;;;;7.80;1.25;;;;;;;9.41;100.00;100459.28;5046827;28;20071;-74
2023/12/22 10:52:37;;;;;;;6.65;1.30;;;;;;;9.41;100.00;100433.16;5043957;28;20040;-73
2023/12/22 10:55:03;;;;;;;7.68;1.48;;;;;;;9.42;100.00;100437.44;5044975;28;20036;-74
2023/12/22 10:57:28;;;;;;;10.70;2.28;;;;;;;9.44;100.00;100440.88;5044017;28;20045;-74
2023/12/22 10:59:57;;;;;;;9.30;1.77;;;;;;;9.45;100.00;100452.16;5043815;28;20028;-74
2023/12/22 11:02:22;;;;;;;7.85;1.55;;;;;;;9.44;100.00;100442.59;5044987;28;20909;-73
2023/12/22 11:05:00;;;;;;;12.57;1.75;;;;;;;9.43;100.00;100433.94;5044001;28;20045;-74
2023/12/22 11:07:25;;;;;;;14.55;2.72;;;;;;;9.43;100.00;100457.44;5044433;28;20037;-74
2023/12/22 11:09:53;;;;;;;8.00;2.05;;;;;;;9.46;100.00;100436.41;5043112;28;20099;-74
2023/12/22 11:12:19;;;;;;;4.65;1.25;;;;;;;9.45;100.00;100434.72;5042549;28;20033;-74
2023/12/22 11:14:50;;;;;;;7.30;1.70;;;;;;;9.46;100.00;100427.72;5044767;28;20144;-74
2023/12/22 11:17:19;;;;;;;11.43;1.85;;;;;;;9.47;100.00;100421.59;5047285;28;20359;-74